Tsail, Arizona
Current Conditions -  °F | °C
As of 3:53 PM on Friday 19 Dec 2014 (Local Time) from KRQE Reporting Station
Clear Clear  
Wind Chill: 43°   Ceiling: Unl
Heat Index: 43°   Visibility: 10mi
Dew Point: 21°   Wind: 3mph
Humidity: 42%   Direction: 10°N
Pressure: 30.17"   Gusts: NA
Location:  36.1012°N, 109.584°W
Report Text: KRQE 192253Z AUTO 01003KT 10SM CLR 06/M06 A3017 RMK AO2 SLP200 T00611061 TSNO
Loading
Personal Weather Stations






























Interactive Weather Map New forecast layout! Learn more

10-Day Weather Forecast

Advertisements
Track Severe Weather on mobile